createdAt,value
2019-03-17T00:00:15.560Z,8.90
2019-03-17T00:01:15.528Z,8.93
2019-03-17T00:02:15.481Z,8.86
2019-03-17T00:03:15.474Z,8.96
2019-03-17T00:04:15.453Z,8.90
2019-03-17T00:05:15.446Z,8.86
2019-03-17T00:06:15.470Z,8.86
2019-03-17T00:07:15.446Z,8.88
2019-03-17T00:08:15.475Z,8.91
2019-03-17T00:09:15.409Z,8.90
2019-03-17T00:10:15.400Z,8.84
2019-03-17T00:11:15.477Z,8.90
2019-03-17T00:12:16.360Z,8.86
2019-03-17T00:13:17.606Z,8.75
2019-03-17T00:14:15.386Z,8.91
2019-03-17T00:15:15.765Z,8.76
2019-03-17T00:16:15.514Z,8.84
2019-03-17T00:17:15.604Z,8.81
2019-03-17T00:18:15.311Z,8.88
2019-03-17T00:19:15.299Z,8.88
2019-03-17T00:20:15.288Z,8.94
2019-03-17T00:21:15.305Z,8.90
2019-03-17T00:22:15.258Z,8.86
2019-03-17T00:23:15.246Z,8.86
2019-03-17T00:24:15.237Z,8.81
2019-03-17T00:25:15.252Z,8.88
2019-03-17T00:26:15.221Z,8.83
2019-03-17T00:27:15.226Z,8.84
2019-03-17T00:28:15.214Z,8.81
2019-03-17T00:29:15.211Z,8.86
2019-03-17T00:30:15.169Z,8.76
2019-03-17T00:31:23.917Z,8.81
2019-03-17T00:32:16.167Z,8.79
2019-03-17T00:33:15.161Z,8.86
2019-03-17T00:34:15.159Z,8.84
2019-03-17T00:35:15.120Z,8.78
2019-03-17T00:36:15.100Z,8.83
2019-03-17T00:37:15.090Z,8.83
2019-03-17T00:38:15.101Z,8.81
2019-03-17T00:39:15.081Z,8.79
2019-03-17T00:40:15.138Z,8.78
2019-03-17T00:41:15.109Z,8.84
2019-03-17T00:42:15.179Z,8.76
2019-03-17T00:43:15.033Z,8.84
2019-03-17T00:44:15.031Z,8.76
2019-03-17T00:45:15.007Z,8.78
2019-03-17T00:46:15.020Z,8.84
2019-03-17T00:47:14.998Z,8.81
2019-03-17T00:48:14.975Z,8.78
2019-03-17T00:49:14.968Z,8.83
2019-03-17T00:50:14.967Z,8.81
2019-03-17T00:51:14.970Z,8.90
2019-03-17T00:52:14.982Z,8.78
2019-03-17T00:53:14.936Z,8.75
2019-03-17T00:54:15.005Z,8.86
2019-03-17T00:55:14.923Z,8.83
2019-03-17T00:56:15.370Z,8.86
2019-03-17T00:57:15.502Z,8.84
2019-03-17T00:58:14.902Z,8.84
2019-03-17T00:59:14.864Z,8.79
2019-03-17T01:00:14.846Z,8.81
2019-03-17T01:01:14.839Z,8.81
2019-03-17T01:02:14.816Z,8.76
2019-03-17T01:03:14.824Z,8.79
2019-03-17T01:04:14.809Z,8.81
2019-03-17T01:05:14.801Z,8.79
2019-03-17T01:06:14.780Z,8.83
2019-03-17T01:07:14.769Z,8.81
2019-03-17T01:08:14.778Z,8.81
2019-03-17T01:09:14.772Z,8.73
2019-03-17T01:10:14.740Z,8.76
2019-03-17T01:11:14.744Z,8.73
2019-03-17T01:12:14.735Z,8.75
2019-03-17T01:13:14.715Z,8.76
2019-03-17T01:14:14.694Z,8.73
2019-03-17T01:15:14.673Z,8.71
2019-03-17T01:16:14.663Z,8.73
2019-03-17T01:17:14.710Z,8.86
2019-03-17T01:18:14.654Z,8.83
2019-03-17T01:19:14.697Z,8.78
2019-03-17T01:20:14.623Z,8.79
2019-03-17T01:21:14.609Z,8.78
2019-03-17T01:22:14.610Z,8.79
2019-03-17T01:23:14.599Z,8.78
2019-03-17T01:24:14.583Z,8.75
2019-03-17T01:25:14.597Z,8.76
2019-03-17T01:26:14.555Z,8.75
2019-03-17T01:27:14.551Z,8.81
2019-03-17T01:28:14.530Z,8.76
2019-03-17T01:29:14.561Z,8.86
2019-03-17T01:30:14.522Z,8.81
2019-03-17T01:31:14.508Z,8.84
2019-03-17T01:32:14.506Z,8.86
2019-03-17T01:33:14.487Z,8.88
2019-03-17T01:34:14.465Z,8.88
2019-03-17T01:35:14.471Z,8.88
2019-03-17T01:36:14.461Z,8.90
2019-03-17T01:37:14.451Z,8.94
2019-03-17T01:38:14.414Z,8.93
2019-03-17T01:39:14.424Z,8.96
2019-03-17T01:40:14.406Z,8.90
2019-03-17T01:41:14.388Z,8.90
2019-03-17T01:42:14.393Z,8.91
2019-03-17T01:43:14.373Z,8.88
2019-03-17T01:44:14.382Z,8.88
2019-03-17T01:45:14.344Z,8.87
2019-03-17T01:46:14.333Z,8.91
2019-03-17T01:47:14.326Z,8.88
2019-03-17T01:48:14.311Z,8.96
2019-03-17T01:49:14.333Z,8.94
2019-03-17T01:50:14.292Z,8.94
2019-03-17T01:51:14.284Z,8.86
2019-03-17T01:52:14.264Z,8.86
2019-03-17T01:53:14.262Z,8.88
2019-03-17T01:54:14.263Z,8.90
2019-03-17T01:55:14.261Z,8.99
2019-03-17T01:56:14.228Z,8.87
2019-03-17T01:57:14.218Z,8.93
2019-03-17T01:58:14.201Z,8.86
2019-03-17T01:59:14.194Z,8.94
2019-03-17T02:00:14.200Z,8.93
2019-03-17T02:01:14.185Z,8.91
2019-03-17T02:02:14.189Z,8.94
2019-03-17T02:03:14.154Z,8.88
2019-03-17T02:04:14.144Z,8.97
2019-03-17T02:05:21.956Z,8.94
2019-03-17T02:06:15.104Z,8.94
2019-03-17T02:07:14.124Z,8.90
2019-03-17T02:08:14.095Z,8.91
2019-03-17T02:09:14.095Z,8.94
2019-03-17T02:10:14.068Z,8.90
2019-03-17T02:11:14.054Z,8.93
2019-03-17T02:12:14.080Z,8.93
2019-03-17T02:13:14.063Z,8.99
2019-03-17T02:14:14.034Z,8.88
2019-03-17T02:15:14.030Z,8.90
2019-03-17T02:16:14.023Z,8.88
2019-03-17T02:17:14.003Z,8.97
2019-03-17T02:18:14.028Z,9.01
2019-03-17T02:19:13.965Z,8.96
2019-03-17T02:20:13.956Z,8.96
2019-03-17T02:21:13.944Z,8.97
2019-03-17T02:22:13.948Z,8.88
2019-03-17T02:23:13.930Z,8.97
2019-03-17T02:24:13.951Z,8.97
2019-03-17T02:25:13.898Z,8.91
2019-03-17T02:26:13.906Z,8.93
2019-03-17T02:27:13.898Z,8.87
2019-03-17T02:28:13.893Z,8.99
2019-03-17T02:29:13.871Z,8.91
2019-03-17T02:30:13.874Z,8.90
2019-03-17T02:31:13.845Z,9.02
2019-03-17T02:32:13.834Z,8.97
2019-03-17T02:33:13.815Z,8.91
2019-03-17T02:34:13.838Z,8.93
2019-03-17T02:35:13.828Z,8.97
2019-03-17T02:36:13.806Z,8.91
2019-03-17T02:37:13.779Z,8.99
2019-03-17T02:38:13.762Z,8.97
2019-03-17T02:39:13.754Z,8.94
2019-03-17T02:40:13.778Z,8.94
2019-03-17T02:41:13.759Z,8.91
2019-03-17T02:42:13.722Z,8.94
2019-03-17T02:43:13.703Z,8.96
2019-03-17T02:44:13.692Z,8.93
2019-03-17T02:45:13.741Z,8.91
2019-03-17T02:46:13.711Z,8.93
2019-03-17T02:47:13.682Z,8.93
2019-03-17T02:48:13.654Z,9.01
2019-03-17T02:49:13.652Z,8.93
2019-03-17T02:50:13.657Z,8.96
2019-03-17T02:51:13.626Z,8.99
2019-03-17T02:52:13.621Z,9.01
2019-03-17T02:53:13.606Z,8.96
2019-03-17T02:54:13.596Z,8.99
2019-03-17T02:55:13.600Z,8.97
2019-03-17T02:56:13.562Z,8.99
2019-03-17T02:57:13.563Z,8.90
2019-03-17T02:58:13.559Z,8.94
2019-03-17T02:59:13.553Z,8.94
2019-03-17T03:00:13.555Z,8.99
2019-03-17T03:01:13.537Z,8.88
2019-03-17T03:02:13.507Z,8.97
2019-03-17T03:03:13.490Z,8.96
2019-03-17T03:04:13.490Z,8.93
2019-03-17T03:05:13.487Z,8.99
2019-03-17T03:06:13.461Z,8.88
2019-03-17T03:07:13.454Z,8.99
2019-03-17T03:08:13.443Z,9.01
2019-03-17T03:09:13.432Z,9.02
2019-03-17T03:10:13.436Z,8.96
2019-03-17T03:11:13.402Z,8.96
2019-03-17T03:12:13.433Z,8.96
2019-03-17T03:13:13.414Z,8.96
2019-03-17T03:14:13.376Z,8.97
2019-03-17T03:15:13.390Z,8.96
2019-03-17T03:16:13.339Z,9.01
2019-03-17T03:17:13.334Z,9.01
2019-03-17T03:18:13.337Z,8.94
2019-03-17T03:19:13.320Z,9.04
2019-03-17T03:20:13.319Z,9.01
2019-03-17T03:21:13.322Z,8.88
2019-03-17T03:22:13.305Z,8.90
2019-03-17T03:23:13.265Z,8.94
2019-03-17T03:24:13.268Z,8.96
2019-03-17T03:25:13.259Z,8.96
2019-03-17T03:26:13.246Z,8.91
2019-03-17T03:27:13.244Z,8.94
2019-03-17T03:28:13.238Z,8.90
2019-03-17T03:29:13.209Z,8.97
2019-03-17T03:30:13.231Z,8.99
2019-03-17T03:31:13.200Z,8.91
2019-03-17T03:32:13.205Z,9.02
2019-03-17T03:33:13.176Z,8.94
2019-03-17T03:34:13.172Z,8.99
2019-03-17T03:35:13.138Z,8.90
2019-03-17T03:36:13.139Z,8.99
2019-03-17T03:37:13.121Z,8.96
2019-03-17T03:38:13.114Z,8.97
2019-03-17T03:39:13.116Z,8.94
2019-03-17T03:40:13.090Z,9.01
2019-03-17T03:41:13.100Z,8.97
2019-03-17T03:42:13.062Z,8.96
2019-03-17T03:43:13.055Z,8.99
2019-03-17T03:44:13.070Z,8.90
2019-03-17T03:45:13.044Z,8.88
2019-03-17T03:46:13.012Z,8.91
2019-03-17T03:47:13.015Z,8.91
2019-03-17T03:48:13.013Z,8.93
2019-03-17T03:49:12.981Z,8.94
2019-03-17T03:50:12.981Z,9.01
2019-03-17T03:51:12.985Z,8.93
2019-03-17T03:52:12.961Z,8.93
2019-03-17T03:53:12.973Z,8.90
2019-03-17T03:54:12.934Z,8.87
2019-03-17T03:55:12.914Z,8.81
2019-03-17T03:56:12.939Z,8.81
2019-03-17T03:57:12.898Z,8.83
2019-03-17T03:58:12.917Z,8.79
2019-03-17T03:59:12.870Z,8.81
2019-03-17T04:00:12.874Z,8.81
2019-03-17T04:01:12.863Z,8.71
2019-03-17T04:02:12.860Z,8.75
2019-03-17T04:03:12.884Z,8.78
2019-03-17T04:04:12.844Z,8.66
2019-03-17T04:05:12.818Z,8.66
2019-03-17T04:06:25.795Z,8.55
2019-03-17T04:07:13.783Z,8.53
2019-03-17T04:08:12.805Z,8.54
2019-03-17T04:09:12.766Z,8.66
2019-03-17T04:10:12.770Z,8.69
2019-03-17T04:11:12.751Z,8.54
2019-03-17T04:12:12.746Z,8.75
2019-03-17T04:13:12.773Z,8.57
2019-03-17T04:14:12.700Z,8.58
2019-03-17T04:15:12.698Z,8.57
2019-03-17T04:16:12.688Z,8.58
2019-03-17T04:17:12.680Z,8.54
2019-03-17T04:18:12.661Z,8.57
2019-03-17T04:19:12.668Z,8.57
2019-03-17T04:20:12.680Z,8.63
2019-03-17T04:21:12.635Z,8.66
2019-03-17T04:22:12.629Z,8.54
2019-03-17T04:23:12.629Z,8.63
2019-03-17T04:24:12.604Z,8.69
2019-03-17T04:25:12.608Z,8.62
2019-03-17T04:26:12.580Z,8.58
2019-03-17T04:27:12.558Z,8.62
2019-03-17T04:28:12.595Z,8.65
2019-03-17T04:29:12.562Z,8.60
2019-03-17T04:30:12.545Z,8.66
2019-03-17T04:31:14.544Z,8.65
2019-03-17T04:32:12.512Z,8.63
2019-03-17T04:33:12.501Z,8.63
2019-03-17T04:34:12.516Z,8.54
2019-03-17T04:35:12.503Z,8.57
2019-03-17T04:36:12.474Z,8.50
2019-03-17T04:37:12.465Z,8.65
2019-03-17T04:38:12.443Z,8.55
2019-03-17T04:39:12.464Z,8.53
2019-03-17T04:40:12.421Z,8.57
2019-03-17T04:41:12.406Z,8.62
2019-03-17T04:42:12.442Z,8.65
2019-03-17T04:43:12.409Z,8.62
2019-03-17T04:44:20.728Z,8.66
2019-03-17T04:45:13.404Z,8.60
2019-03-17T04:46:12.363Z,8.53
2019-03-17T04:47:12.344Z,8.51
2019-03-17T04:48:12.347Z,8.55
2019-03-17T04:49:12.347Z,8.54
2019-03-17T04:50:12.332Z,8.58
2019-03-17T04:51:12.343Z,8.55
2019-03-17T04:52:12.288Z,8.51
2019-03-17T04:53:12.279Z,8.65
2019-03-17T04:54:12.285Z,8.69
2019-03-17T04:55:12.283Z,8.71
2019-03-17T04:56:12.256Z,8.71
2019-03-17T04:57:12.245Z,8.73
2019-03-17T04:58:12.225Z,8.69
2019-03-17T04:59:12.212Z,8.58
2019-03-17T05:00:12.229Z,8.65
2019-03-17T05:01:12.199Z,8.69
2019-03-17T05:02:13.592Z,8.54
2019-03-17T05:03:12.175Z,8.51
2019-03-17T05:04:12.152Z,8.60
2019-03-17T05:05:12.156Z,8.53
2019-03-17T05:06:12.161Z,8.63
2019-03-17T05:07:12.133Z,8.58
2019-03-17T05:08:12.124Z,8.69
2019-03-17T05:09:12.113Z,8.66
2019-03-17T05:10:12.110Z,8.54
2019-03-17T05:11:12.101Z,8.57
2019-03-17T05:12:12.071Z,8.72
2019-03-17T05:13:12.071Z,8.69
2019-03-17T05:14:12.055Z,8.65
2019-03-17T05:15:12.056Z,8.68
2019-03-17T05:16:12.061Z,8.63
2019-03-17T05:17:12.029Z,8.71
2019-03-17T05:18:11.997Z,8.73
2019-03-17T05:19:11.993Z,8.73
2019-03-17T05:20:11.986Z,8.71
2019-03-17T05:21:12.019Z,8.73
2019-03-17T05:22:11.958Z,8.73
2019-03-17T05:23:11.944Z,8.78
2019-03-17T05:24:11.933Z,8.69
2019-03-17T05:25:11.924Z,8.76
2019-03-17T05:26:11.922Z,8.73
2019-03-17T05:27:11.944Z,8.75
2019-03-17T05:28:11.897Z,8.84
2019-03-17T05:29:11.896Z,8.79
2019-03-17T05:30:11.877Z,8.84
2019-03-17T05:31:11.878Z,8.84
2019-03-17T05:32:11.858Z,8.88
2019-03-17T05:33:11.868Z,8.86
2019-03-17T05:34:11.835Z,8.99
2019-03-17T05:35:11.819Z,8.93
2019-03-17T05:36:11.813Z,8.88
2019-03-17T05:37:11.822Z,8.93
2019-03-17T05:38:11.839Z,9.01
2019-03-17T05:39:11.771Z,8.94
2019-03-17T05:40:11.763Z,8.99
2019-03-17T05:41:11.745Z,9.04
2019-03-17T05:42:11.750Z,9.04
2019-03-17T05:43:11.770Z,9.04
2019-03-17T05:44:11.725Z,8.91
2019-03-17T05:45:11.716Z,8.97
2019-03-17T05:46:11.698Z,8.94
2019-03-17T05:47:11.691Z,9.04
2019-03-17T05:48:11.680Z,8.93
2019-03-17T05:49:11.688Z,9.01
2019-03-17T05:50:11.662Z,9.05
2019-03-17T05:51:11.661Z,9.09
2019-03-17T05:52:11.636Z,9.01
2019-03-17T05:53:11.612Z,9.04
2019-03-17T05:54:11.650Z,8.99
2019-03-17T05:55:11.633Z,9.01
2019-03-17T05:56:11.610Z,9.10
2019-03-17T05:57:11.588Z,9.09
2019-03-17T05:58:11.565Z,9.06
2019-03-17T05:59:11.587Z,9.05
2019-03-17T06:00:11.546Z,9.12
2019-03-17T06:01:11.550Z,9.09
2019-03-17T06:02:11.532Z,9.06
2019-03-17T06:03:11.523Z,9.18
2019-03-17T06:04:11.554Z,9.15
2019-03-17T06:05:11.526Z,9.09
2019-03-17T06:06:11.478Z,9.12
2019-03-17T06:07:18.577Z,9.27
2019-03-17T06:08:12.457Z,9.35
2019-03-17T06:09:11.461Z,9.31
2019-03-17T06:10:11.455Z,9.32
2019-03-17T06:11:11.417Z,9.24
2019-03-17T06:12:11.420Z,9.35
2019-03-17T06:13:11.404Z,9.28
2019-03-17T06:14:11.393Z,9.34
2019-03-17T06:15:11.455Z,9.38
2019-03-17T06:16:11.376Z,9.32
2019-03-17T06:17:11.368Z,9.35
2019-03-17T06:18:11.339Z,9.34
2019-03-17T06:19:11.329Z,9.38
2019-03-17T06:20:11.328Z,9.38
2019-03-17T06:21:11.335Z,9.42
2019-03-17T06:22:11.307Z,9.43
2019-03-17T06:23:11.302Z,9.38
2019-03-17T06:24:11.282Z,9.46
2019-03-17T06:25:11.267Z,9.42
2019-03-17T06:26:11.279Z,9.48
2019-03-17T06:27:11.281Z,9.50
2019-03-17T06:28:11.236Z,9.46
2019-03-17T06:29:11.227Z,9.52
2019-03-17T06:30:11.215Z,9.64
2019-03-17T06:31:11.197Z,9.58
2019-03-17T06:32:11.189Z,9.60
2019-03-17T06:33:11.227Z,9.63
2019-03-17T06:34:11.173Z,9.70
2019-03-17T06:35:11.263Z,9.78
2019-03-17T06:36:11.158Z,9.68
2019-03-17T06:37:11.165Z,9.63
2019-03-17T06:38:11.130Z,9.70
2019-03-17T06:39:11.128Z,9.64
2019-03-17T06:40:11.111Z,9.58
2019-03-17T06:41:11.098Z,9.66
2019-03-17T06:42:11.087Z,9.63
2019-03-17T06:43:11.087Z,9.60
2019-03-17T06:44:11.079Z,9.60
2019-03-17T06:45:11.043Z,9.48
2019-03-17T06:46:11.056Z,9.56
2019-03-17T06:47:11.054Z,9.60
2019-03-17T06:48:11.031Z,9.61
2019-03-17T06:49:11.026Z,9.57
2019-03-17T06:50:10.996Z,9.61
2019-03-17T06:51:10.979Z,9.70
2019-03-17T06:52:10.989Z,9.61
2019-03-17T06:53:10.964Z,9.63
2019-03-17T06:54:10.958Z,9.60
2019-03-17T06:55:10.945Z,9.68
2019-03-17T06:56:10.921Z,9.64
2019-03-17T06:57:10.907Z,9.70
2019-03-17T06:58:10.931Z,9.68
2019-03-17T06:59:10.906Z,9.85
2019-03-17T07:00:10.892Z,9.88
2019-03-17T07:01:10.881Z,9.91
2019-03-17T07:02:10.849Z,9.88
2019-03-17T07:03:10.844Z,9.86
2019-03-17T07:04:10.867Z,9.88
2019-03-17T07:05:10.830Z,9.94
2019-03-17T07:06:10.840Z,9.99
2019-03-17T07:07:10.817Z,9.99
2019-03-17T07:08:10.799Z,10.04
2019-03-17T07:09:10.787Z,10.09
2019-03-17T07:10:10.782Z,10.07
2019-03-17T07:11:11.201Z,10.18
2019-03-17T07:12:10.763Z,10.21
2019-03-17T07:13:10.756Z,10.46
2019-03-17T07:14:10.723Z,10.53
2019-03-17T07:15:10.734Z,10.55
2019-03-17T07:16:10.708Z,10.53
2019-03-17T07:17:10.693Z,10.51
2019-03-17T07:18:10.691Z,10.56
2019-03-17T07:19:10.669Z,10.53
2019-03-17T07:20:10.687Z,10.53
2019-03-17T07:21:10.654Z,10.53
2019-03-17T07:22:10.639Z,10.60
2019-03-17T07:23:10.622Z,10.60
2019-03-17T07:24:10.624Z,10.58
2019-03-17T07:25:10.616Z,10.47
2019-03-17T07:26:10.607Z,10.51
2019-03-17T07:27:10.596Z,10.55
2019-03-17T07:28:10.576Z,10.53
2019-03-17T07:29:10.559Z,10.47
2019-03-17T07:30:10.585Z,10.60
2019-03-17T07:31:10.546Z,10.68
2019-03-17T07:32:10.535Z,10.86
2019-03-17T07:33:10.531Z,11.02
2019-03-17T07:34:10.501Z,11.10
2019-03-17T07:35:10.517Z,11.02
2019-03-17T07:36:10.501Z,11.17
2019-03-17T07:37:10.471Z,11.44
2019-03-17T07:38:10.539Z,11.49
2019-03-17T07:39:11.965Z,11.34
2019-03-17T07:40:10.450Z,11.62
2019-03-17T07:41:10.446Z,11.94
2019-03-17T07:42:10.447Z,12.15
2019-03-17T07:43:10.409Z,12.20
2019-03-17T07:44:10.398Z,12.13
2019-03-17T07:45:10.393Z,12.30
2019-03-17T07:46:10.376Z,12.34
2019-03-17T07:47:10.368Z,12.41
2019-03-17T07:48:10.393Z,12.59
2019-03-17T07:49:10.350Z,12.70
2019-03-17T07:50:10.332Z,13.25
2019-03-17T07:51:10.336Z,13.80
2019-03-17T07:52:10.325Z,14.27
2019-03-17T07:53:10.309Z,14.64
2019-03-17T07:54:10.312Z,15.08
2019-03-17T07:55:10.304Z,15.45
2019-03-17T07:56:10.265Z,15.66
2019-03-17T07:57:10.250Z,16.15
2019-03-17T07:58:10.253Z,16.74
2019-03-17T07:59:10.229Z,17.17
2019-03-17T08:00:10.237Z,17.35
2019-03-17T08:01:10.203Z,17.63
2019-03-17T08:02:10.220Z,17.87
2019-03-17T08:03:10.197Z,18.34
2019-03-17T08:04:10.195Z,18.65
2019-03-17T08:05:10.198Z,18.62
2019-03-17T08:06:10.167Z,18.82
2019-03-17T08:07:10.139Z,19.05
2019-03-17T08:08:10.166Z,19.14
2019-03-17T08:09:10.118Z,19.51
2019-03-17T08:10:10.130Z,19.76
2019-03-17T08:11:10.132Z,20.00
2019-03-17T08:12:10.092Z,20.06
2019-03-17T08:13:10.078Z,20.30
2019-03-17T08:14:10.072Z,20.50
2019-03-17T08:15:10.059Z,20.80
2019-03-17T08:16:10.066Z,21.39
2019-03-17T08:17:10.070Z,21.57
2019-03-17T08:18:10.031Z,21.51
2019-03-17T08:19:10.011Z,21.72
2019-03-17T08:20:09.993Z,22.04
2019-03-17T08:21:09.982Z,22.29
2019-03-17T08:22:10.010Z,22.01
2019-03-17T08:23:09.974Z,22.16
2019-03-17T08:24:09.961Z,22.27
2019-03-17T08:25:09.958Z,21.88
2019-03-17T08:26:09.922Z,22.01
2019-03-17T08:27:09.922Z,22.39
2019-03-17T08:28:09.922Z,22.72
2019-03-17T08:29:09.897Z,22.32
2019-03-17T08:30:09.894Z,22.75
2019-03-17T08:31:10.208Z,23.04
2019-03-17T08:32:09.862Z,22.74
2019-03-17T08:33:09.871Z,22.90
2019-03-17T08:34:09.859Z,23.42
2019-03-17T08:35:09.856Z,23.42
2019-03-17T08:36:09.838Z,23.26
2019-03-17T08:37:09.823Z,21.98
2019-03-17T08:38:21.240Z,21.97
2019-03-17T08:39:10.832Z,21.92
2019-03-17T08:40:09.778Z,21.41
2019-03-17T08:41:09.765Z,20.41
2019-03-17T08:42:09.761Z,20.61
2019-03-17T08:43:09.749Z,19.98
2019-03-17T08:44:09.743Z,19.40
2019-03-17T08:45:09.774Z,19.02
2019-03-17T08:46:09.706Z,18.79
2019-03-17T08:47:09.699Z,19.47
2019-03-17T08:48:09.705Z,19.90
2019-03-17T08:49:09.685Z,20.25
2019-03-17T08:50:09.686Z,19.98
2019-03-17T08:51:09.690Z,19.35
2019-03-17T08:52:09.639Z,18.76
2019-03-17T08:53:09.632Z,18.02
2019-03-17T08:54:09.642Z,17.76
2019-03-17T08:55:09.614Z,19.29
2019-03-17T08:56:09.642Z,18.84
2019-03-17T08:57:09.598Z,20.74
2019-03-17T08:58:09.580Z,22.01
2019-03-17T08:59:09.580Z,21.82
2019-03-17T09:00:09.581Z,22.28
2019-03-17T09:01:09.592Z,22.57
2019-03-17T09:02:09.559Z,22.47
2019-03-17T09:03:09.537Z,23.24
2019-03-17T09:04:10.480Z,24.04
2019-03-17T09:05:09.586Z,22.97
2019-03-17T09:06:09.525Z,20.81
2019-03-17T09:07:09.501Z,21.45
2019-03-17T09:08:09.492Z,22.19
2019-03-17T09:09:09.479Z,23.12
2019-03-17T09:10:09.453Z,23.67
2019-03-17T09:11:09.456Z,24.00
2019-03-17T09:12:09.447Z,24.29
2019-03-17T09:13:09.434Z,24.68
2019-03-17T09:14:09.420Z,24.67
2019-03-17T09:15:09.412Z,24.68
2019-03-17T09:16:09.421Z,24.87
2019-03-17T09:17:14.182Z,24.79
2019-03-17T09:18:10.442Z,24.94
2019-03-17T09:19:09.365Z,24.83
2019-03-17T09:20:09.353Z,24.95
2019-03-17T09:21:09.366Z,24.91
2019-03-17T09:22:09.322Z,24.85
2019-03-17T09:23:09.307Z,24.69
2019-03-17T09:24:17.108Z,24.34
2019-03-17T09:25:10.287Z,24.14
2019-03-17T09:26:09.326Z,24.49
2019-03-17T09:27:09.276Z,24.92
2019-03-17T09:28:09.263Z,25.13
2019-03-17T09:29:09.280Z,23.07
2019-03-17T09:30:09.261Z,23.43
2019-03-17T09:31:09.228Z,23.83
2019-03-17T09:32:09.234Z,24.42
2019-03-17T09:33:09.203Z,24.97
2019-03-17T09:34:09.195Z,24.79
2019-03-17T09:35:09.205Z,24.79
2019-03-17T09:36:09.170Z,23.68
2019-03-17T09:37:09.158Z,23.80
2019-03-17T09:38:09.200Z,24.49
2019-03-17T09:39:09.154Z,25.16
2019-03-17T09:40:09.142Z,24.98
2019-03-17T09:41:09.134Z,23.57
2019-03-17T09:42:11.168Z,23.83
2019-03-17T09:43:09.128Z,24.57
2019-03-17T09:44:09.104Z,25.50
2019-03-17T09:45:09.075Z,25.22
2019-03-17T09:46:09.075Z,24.16
2019-03-17T09:47:09.077Z,22.04
2019-03-17T09:48:09.049Z,20.62
2019-03-17T09:49:09.063Z,19.63
2019-03-17T09:50:09.028Z,18.82
2019-03-17T09:51:09.033Z,18.40
2019-03-17T09:52:09.010Z,18.22
2019-03-17T09:53:09.009Z,17.97
2019-03-17T09:54:09.012Z,17.59
2019-03-17T09:55:08.979Z,17.70
2019-03-17T09:56:08.952Z,17.79
2019-03-17T09:57:08.939Z,17.62
2019-03-17T09:58:08.938Z,17.33
2019-03-17T09:59:08.950Z,17.08
2019-03-17T10:00:08.923Z,16.90
2019-03-17T10:01:08.922Z,16.67
2019-03-17T10:02:08.880Z,16.31
2019-03-17T10:03:08.869Z,16.11
2019-03-17T10:04:08.906Z,16.00
2019-03-17T10:05:08.859Z,16.41
2019-03-17T10:06:08.847Z,16.55
2019-03-17T10:07:08.831Z,16.49
2019-03-17T10:08:08.816Z,16.48
2019-03-17T10:09:08.848Z,16.40
2019-03-17T10:10:08.822Z,16.12
2019-03-17T10:11:10.669Z,16.18
2019-03-17T10:12:08.789Z,17.30
2019-03-17T10:13:08.879Z,17.00
2019-03-17T10:14:08.756Z,16.60
2019-03-17T10:15:08.776Z,16.83
2019-03-17T10:16:08.756Z,18.07
2019-03-17T10:17:08.734Z,18.94
2019-03-17T10:18:08.715Z,18.59
2019-03-17T10:19:08.713Z,17.94
2019-03-17T10:20:08.692Z,17.41
2019-03-17T10:21:08.683Z,16.95
2019-03-17T10:22:08.693Z,16.75
2019-03-17T10:23:08.658Z,16.38
2019-03-17T10:24:08.653Z,16.12
2019-03-17T10:25:08.635Z,15.89
2019-03-17T10:26:08.613Z,15.66
2019-03-17T10:27:08.616Z,15.35
2019-03-17T10:28:08.618Z,15.20
2019-03-17T10:29:08.592Z,15.05
2019-03-17T10:30:08.591Z,15.05
2019-03-17T10:31:08.589Z,14.87
2019-03-17T10:32:08.566Z,14.71
2019-03-17T10:33:08.564Z,14.80
2019-03-17T10:34:08.539Z,14.72
2019-03-17T10:35:08.519Z,14.78
2019-03-17T10:36:08.503Z,14.80
2019-03-17T10:37:08.515Z,14.86
2019-03-17T10:38:08.505Z,14.80
2019-03-17T10:39:12.650Z,14.81
2019-03-17T10:40:08.465Z,14.91
2019-03-17T10:41:08.462Z,14.90
2019-03-17T10:42:08.457Z,14.99
2019-03-17T10:43:08.451Z,15.19
2019-03-17T10:44:08.529Z,15.31
2019-03-17T10:45:08.412Z,15.52
2019-03-17T10:46:08.403Z,15.61
2019-03-17T10:47:08.411Z,15.89
2019-03-17T10:48:08.418Z,16.01
2019-03-17T10:49:08.367Z,15.96
2019-03-17T10:50:08.372Z,15.82
2019-03-17T10:51:08.388Z,15.78
2019-03-17T10:52:08.341Z,16.55
2019-03-17T10:53:08.333Z,17.29
2019-03-17T10:54:08.318Z,17.59
2019-03-17T10:55:08.290Z,17.07
2019-03-17T10:56:08.299Z,16.56
2019-03-17T10:57:08.287Z,16.06
2019-03-17T10:58:08.266Z,16.22
2019-03-17T10:59:08.288Z,16.38
2019-03-17T11:00:08.267Z,16.48
2019-03-17T11:01:08.243Z,16.78
2019-03-17T11:02:08.252Z,16.60
2019-03-17T11:03:08.219Z,16.53
2019-03-17T11:04:08.215Z,16.34
2019-03-17T11:05:08.188Z,16.01
2019-03-17T11:06:08.199Z,15.88
2019-03-17T11:07:08.185Z,15.70
2019-03-17T11:08:08.177Z,15.52
2019-03-17T11:09:08.151Z,15.12
2019-03-17T11:10:08.138Z,14.95
2019-03-17T11:11:08.157Z,14.94
2019-03-17T11:12:08.121Z,14.93
2019-03-17T11:13:08.120Z,14.88
2019-03-17T11:14:08.123Z,14.81
2019-03-17T11:15:08.087Z,14.74
2019-03-17T11:16:08.072Z,14.67
2019-03-17T11:17:08.069Z,14.53
2019-03-17T11:18:08.044Z,14.47
2019-03-17T11:19:08.087Z,14.39
2019-03-17T11:20:08.031Z,14.42
2019-03-17T11:21:08.028Z,14.42
2019-03-17T11:22:08.023Z,14.46
2019-03-17T11:23:07.995Z,14.46
2019-03-17T11:24:07.978Z,14.54
2019-03-17T11:25:08.000Z,14.54
2019-03-17T11:26:07.989Z,14.57
2019-03-17T11:27:07.950Z,14.52
2019-03-17T11:28:07.931Z,14.57
2019-03-17T11:29:07.927Z,14.52
2019-03-17T11:30:07.934Z,14.37
2019-03-17T11:31:07.930Z,14.24
2019-03-17T11:32:07.910Z,14.13
2019-03-17T11:33:07.890Z,14.17
2019-03-17T11:34:07.869Z,14.09
2019-03-17T11:35:07.859Z,14.17
2019-03-17T11:36:07.878Z,14.13
2019-03-17T11:37:07.845Z,14.19
2019-03-17T11:38:07.845Z,14.17
2019-03-17T11:39:07.825Z,14.19
2019-03-17T11:40:07.805Z,14.17
2019-03-17T11:41:07.793Z,14.14
2019-03-17T11:42:07.811Z,14.19
2019-03-17T11:43:07.776Z,14.14
2019-03-17T11:44:07.773Z,14.10
2019-03-17T11:45:07.754Z,14.10
2019-03-17T11:46:07.745Z,14.12
2019-03-17T11:47:07.743Z,13.96
2019-03-17T11:48:07.709Z,13.88
2019-03-17T11:49:07.715Z,13.80
2019-03-17T11:50:07.711Z,13.74
2019-03-17T11:51:07.689Z,13.63
2019-03-17T11:52:07.680Z,13.69
2019-03-17T11:53:07.675Z,13.69
2019-03-17T11:54:07.640Z,13.73
2019-03-17T11:55:07.661Z,13.69
2019-03-17T11:56:07.695Z,13.61
2019-03-17T11:57:07.634Z,13.56
2019-03-17T11:58:07.625Z,13.51
2019-03-17T11:59:07.604Z,13.51
2019-03-17T12:00:07.584Z,13.49
2019-03-17T12:01:07.581Z,13.51
2019-03-17T12:02:07.572Z,13.56
2019-03-17T12:03:07.579Z,13.46
2019-03-17T12:04:07.556Z,13.43
2019-03-17T12:05:07.541Z,13.51
2019-03-17T12:06:07.517Z,13.49
2019-03-17T12:07:07.517Z,13.51
2019-03-17T12:08:08.074Z,13.46
2019-03-17T12:09:07.500Z,13.54
2019-03-17T12:10:07.481Z,13.63
2019-03-17T12:11:07.469Z,13.65
2019-03-17T12:12:07.465Z,13.58
2019-03-17T12:13:07.457Z,13.54
2019-03-17T12:14:09.807Z,13.47
2019-03-17T12:15:07.433Z,13.47
2019-03-17T12:16:07.414Z,13.56
2019-03-17T12:17:07.399Z,13.49
2019-03-17T12:18:07.398Z,13.43
2019-03-17T12:19:07.387Z,13.40
2019-03-17T12:20:07.387Z,13.43
2019-03-17T12:21:07.377Z,13.49
2019-03-17T12:22:09.349Z,13.37
2019-03-17T12:23:07.337Z,13.38
2019-03-17T12:24:07.378Z,13.36
2019-03-17T12:25:07.301Z,13.40
2019-03-17T12:26:07.304Z,13.47
2019-03-17T12:27:07.305Z,13.58
2019-03-17T12:28:07.304Z,13.56
2019-03-17T12:29:07.306Z,13.61
2019-03-17T12:30:07.269Z,13.62
2019-03-17T12:31:07.252Z,13.61
2019-03-17T12:32:07.353Z,13.56
2019-03-17T12:33:07.231Z,13.61
2019-03-17T12:34:07.306Z,13.59
2019-03-17T12:35:07.219Z,13.63
2019-03-17T12:36:07.216Z,13.59
2019-03-17T12:37:07.191Z,13.63
2019-03-17T12:38:07.164Z,13.54
2019-03-17T12:39:07.154Z,13.63
2019-03-17T12:40:07.176Z,13.51
2019-03-17T12:41:07.145Z,13.47
2019-03-17T12:42:07.146Z,13.43
2019-03-17T12:43:07.112Z,13.33
2019-03-17T12:44:07.151Z,13.33
2019-03-17T12:45:07.100Z,13.22
2019-03-17T12:46:07.106Z,13.22
2019-03-17T12:47:07.084Z,13.24
2019-03-17T12:48:07.061Z,13.21
2019-03-17T12:49:07.049Z,13.22
2019-03-17T12:50:07.260Z,13.15
2019-03-17T12:51:07.047Z,13.20
2019-03-17T12:52:07.023Z,13.14
2019-03-17T12:53:08.050Z,13.14
2019-03-17T12:54:07.001Z,13.06
2019-03-17T12:55:07.042Z,13.02
2019-03-17T12:56:06.998Z,13.04
2019-03-17T12:57:06.967Z,12.92
2019-03-17T12:58:06.955Z,12.85
2019-03-17T12:59:06.952Z,12.89
2019-03-17T13:00:06.955Z,12.70
2019-03-17T13:01:06.927Z,12.70
2019-03-17T13:02:06.923Z,12.66
2019-03-17T13:03:06.911Z,12.34
2019-03-17T13:04:06.896Z,12.01
2019-03-17T13:05:06.876Z,11.61
2019-03-17T13:06:06.895Z,11.27